Time;durP1;ratioP1;P1;durP2;ratioP2;P2;SDS_P1;SDS_P2;PMS_P1;PMS_P2;Temp;Humidity;BMP_temperature;BMP_pressure;BME280_temperature;BME280_humidity;BME280_pressure;Samples;Min_cycle;Max_cycle;Signal;HPM_P1;HPM_P2
2022/04/28 00:00:55;;;;;;;6.38;4.00;;;;;;;16.27;48.67;101934.00;5042384;28;20045;-61
2022/04/28 00:03:22;;;;;;;5.50;3.70;;;;;;;16.26;48.57;101937.59;5046626;28;20080;-61
2022/04/28 00:05:49;;;;;;;6.28;4.25;;;;;;;16.26;48.19;101936.75;5036796;28;20040;-61
2022/04/28 00:08:16;;;;;;;5.50;4.00;;;;;;;16.22;48.24;101933.44;5045317;28;20433;-61
2022/04/28 00:10:42;;;;;;;5.40;3.95;;;;;;;16.22;48.63;101940.56;5046793;28;20076;-61
2022/04/28 00:13:11;;;;;;;4.43;4.03;;;;;;;16.19;48.99;101954.84;5050990;28;20132;-61
2022/04/28 00:15:39;;;;;;;9.93;4.40;;;;;;;16.15;49.20;101948.88;5050623;28;20047;-61
2022/04/28 00:18:06;;;;;;;7.78;4.55;;;;;;;16.12;49.31;101945.56;5051363;28;20049;-61
2022/04/28 00:20:33;;;;;;;5.53;4.32;;;;;;;16.09;49.79;101949.25;5050785;28;20120;-61
2022/04/28 00:22:59;;;;;;;6.28;4.85;;;;;;;16.07;49.74;101951.13;5050568;28;20068;-61
2022/04/28 00:25:27;;;;;;;7.13;4.70;;;;;;;16.09;50.00;101954.53;5050354;28;20124;-61
2022/04/28 00:27:54;;;;;;;6.97;4.80;;;;;;;16.07;50.17;101953.78;5043456;28;20068;-62
2022/04/28 00:30:21;;;;;;;5.47;4.70;;;;;;;16.08;50.20;101958.13;5041643;28;20476;-61
2022/04/28 00:32:47;;;;;;;5.57;4.32;;;;;;;16.10;50.41;101956.25;5038900;28;20073;-61
2022/04/28 00:35:14;;;;;;;5.72;4.75;;;;;;;16.09;50.87;101957.19;5043435;28;20073;-61
2022/04/28 00:37:40;;;;;;;5.30;4.60;;;;;;;16.08;51.10;101957.28;5038012;28;20049;-61
2022/04/28 00:40:08;;;;;;;6.15;4.85;;;;;;;16.06;51.03;101957.38;5043482;28;20106;-61
2022/04/28 00:42:34;;;;;;;6.70;4.80;;;;;;;16.06;51.01;101959.16;5038858;28;20046;-61
2022/04/28 00:45:01;;;;;;;6.25;4.63;;;;;;;16.01;51.47;101956.81;5041559;28;20136;-61
2022/04/28 00:50:38;;;;;;;6.07;4.78;;;;;;;15.98;51.23;101949.03;5040439;28;20068;-61
2022/04/28 00:53:00;;;;;;;6.00;4.95;;;;;;;15.99;51.42;101948.94;5037260;28;20049;-61
2022/04/28 00:55:29;;;;;;;5.85;4.60;;;;;;;15.97;51.31;101948.19;5036438;28;20048;-61
2022/04/28 00:57:56;;;;;;;6.10;4.85;;;;;;;15.97;51.25;101949.97;5042147;28;20438;-61
2022/04/28 01:00:23;;;;;;;5.28;4.60;;;;;;;15.96;51.45;101949.13;5043174;28;20144;-61
2022/04/28 01:02:50;;;;;;;6.13;4.68;;;;;;;15.97;51.51;101957.91;5042898;28;20045;-61
2022/04/28 01:05:17;;;;;;;7.32;4.72;;;;;;;15.93;51.58;101957.25;5037156;28;20060;-61
2022/04/28 01:07:44;;;;;;;6.10;4.90;;;;;;;15.93;51.78;101959.06;5049091;28;20072;-61
2022/04/28 01:10:10;;;;;;;4.82;4.30;;;;;;;15.91;51.54;101953.84;5050155;28;20053;-61
2022/04/28 01:12:37;;;;;;;6.97;4.47;;;;;;;15.93;51.81;101956.41;5050040;28;20080;-60
2022/04/28 01:15:05;;;;;;;5.35;4.60;;;;;;;15.89;51.56;101950.44;5049507;28;20056;-61
2022/04/28 01:17:31;;;;;;;5.35;4.13;;;;;;;15.89;51.59;101950.44;5040682;28;20505;-62
2022/04/28 01:19:58;;;;;;;5.45;4.50;;;;;;;15.88;51.62;101959.31;5044460;28;20057;-61
2022/04/28 01:22:26;;;;;;;5.32;4.20;;;;;;;15.90;51.53;101957.44;5040164;28;20085;-61
2022/04/28 01:24:52;;;;;;;4.80;4.28;;;;;;;15.87;51.16;101960.28;5044614;28;20071;-62
2022/04/28 01:27:20;;;;;;;5.65;4.10;;;;;;;15.83;51.06;101956.09;5040722;28;20073;-61
2022/04/28 01:29:47;;;;;;;5.32;4.03;;;;;;;15.82;50.94;101952.63;5042986;28;20041;-61
2022/04/28 01:32:13;;;;;;;6.65;4.10;;;;;;;15.79;51.21;101957.19;5044429;28;20146;-60
2022/04/28 01:34:40;;;;;;;5.32;3.85;;;;;;;15.80;51.01;101958.91;5044819;28;20087;-61
2022/04/28 01:37:07;;;;;;;7.43;4.07;;;;;;;15.80;51.00;101951.81;5048061;28;20053;-61
2022/04/28 01:39:33;;;;;;;5.07;4.38;;;;;;;15.76;51.00;101945.00;5047965;28;20115;-61
2022/04/28 01:42:00;;;;;;;4.35;3.55;;;;;;;15.78;50.89;101947.56;5047820;28;20049;-61
2022/04/28 01:44:27;;;;;;;3.75;3.28;;;;;;;15.76;50.94;101952.09;5043492;28;20096;-60
2022/04/28 01:46:53;;;;;;;4.80;3.72;;;;;;;15.75;51.21;101943.28;5047092;28;20048;-61
2022/04/28 01:49:20;;;;;;;4.70;3.88;;;;;;;15.75;50.81;101943.28;5047743;28;20382;-61
2022/04/28 01:57:16;;;;;;;6.38;3.92;;;;;;;15.76;50.34;101938.88;5039491;28;20072;-61
2022/04/28 01:59:43;;;;;;;6.38;4.05;;;;;;;15.73;50.35;101939.91;5043697;28;20077;-61
2022/04/28 02:02:09;;;;;;;5.32;3.63;;;;;;;15.72;50.78;101935.56;5046630;28;20406;-61
2022/04/28 02:04:36;;;;;;;5.97;4.10;;;;;;;15.70;50.46;101936.59;5044990;28;20065;-61
2022/04/28 02:07:06;;;;;;;3.67;3.33;;;;;;;15.68;50.42;101948.09;5045239;28;20494;-61
2022/04/28 02:09:33;;;;;;;4.40;3.80;;;;;;;15.65;50.30;101948.28;5052430;28;20115;-61
2022/04/28 02:12:00;;;;;;;4.13;3.60;;;;;;;15.66;50.64;101946.50;5052382;28;20049;-61
2022/04/28 02:14:26;;;;;;;4.95;3.85;;;;;;;15.63;50.31;101944.88;5052448;28;20144;-61
2022/04/28 02:16:53;;;;;;;7.93;3.75;;;;;;;15.64;50.14;101953.66;5052370;28;20083;-61
2022/04/28 02:19:20;;;;;;;4.60;3.60;;;;;;;15.63;49.83;101944.00;5051853;28;20114;-61
2022/04/28 02:21:46;;;;;;;4.88;3.38;;;;;;;15.57;50.26;101942.59;5049772;28;20046;-61
2022/04/28 02:24:13;;;;;;;3.88;3.30;;;;;;;15.56;49.97;101943.53;5045546;28;20092;-61
2022/04/28 02:26:39;;;;;;;4.95;4.05;;;;;;;15.55;50.08;101939.16;5043628;28;20084;-61
2022/04/28 02:29:06;;;;;;;4.00;3.60;;;;;;;15.54;49.60;101947.19;5039885;28;20037;-61
2022/04/28 02:31:32;;;;;;;4.05;3.65;;;;;;;15.55;49.87;101943.63;5044713;28;20071;-61
2022/04/28 02:33:59;;;;;;;4.63;3.45;;;;;;;15.49;49.90;101943.03;5041616;28;20052;-61
2022/04/28 02:36:26;;;;;;;5.60;3.95;;;;;;;15.48;49.81;101938.69;5042669;28;20437;-61
2022/04/28 02:38:52;;;;;;;5.78;3.90;;;;;;;15.49;49.97;101942.16;5042326;28;20049;-61
2022/04/28 02:41:22;;;;;;;6.15;3.92;;;;;;;15.47;50.26;101939.63;5044473;28;20041;-61
2022/04/28 02:43:49;;;;;;;4.40;3.88;;;;;;;15.45;50.37;101935.38;5044602;28;20076;-61
2022/04/28 02:46:17;;;;;;;6.45;4.15;;;;;;;15.43;50.42;101932.81;5039755;28;20080;-61
2022/04/28 02:48:45;;;;;;;5.80;4.50;;;;;;;15.46;50.36;101934.44;5045379;28;20041;-61
2022/04/28 02:51:12;;;;;;;6.05;4.70;;;;;;;15.40;50.74;101932.13;5039694;28;20398;-61
2022/04/28 02:53:38;;;;;;;6.32;5.05;;;;;;;15.38;50.60;101932.22;5043751;28;20068;-61
2022/04/28 02:56:05;;;;;;;6.90;4.70;;;;;;;15.39;50.69;101930.44;5041579;28;20111;-61
2022/04/28 02:58:36;;;;;;;5.22;4.60;;;;;;;15.44;50.90;101931.00;5042495;28;20501;-61
2022/04/28 03:01:03;;;;;;;8.32;4.82;;;;;;;15.44;50.79;101931.88;5042424;28;20087;-61
2022/04/28 03:03:30;;;;;;;6.63;5.22;;;;;;;15.42;50.98;101939.03;5044057;28;20071;-61
2022/04/28 03:11:29;;;;;;;5.90;4.85;;;;;;;15.39;51.68;101935.72;5042690;28;20052;-61
2022/04/28 03:13:56;;;;;;;7.13;5.25;;;;;;;15.38;51.83;101928.75;5048600;28;20052;-61
2022/04/28 03:16:24;;;;;;;6.25;5.05;;;;;;;15.35;51.84;101935.91;5048516;28;20048;-61
2022/04/28 03:18:50;;;;;;;7.15;5.18;;;;;;;15.34;51.91;101933.34;5048155;28;20053;-62
2022/04/28 03:21:17;;;;;;;8.30;5.30;;;;;;;15.31;52.33;101944.09;5048053;28;20076;-61
2022/04/28 03:23:44;;;;;;;5.57;4.82;;;;;;;15.29;52.48;101951.28;5048518;28;20482;-61
2022/04/28 03:26:11;;;;;;;7.85;5.30;;;;;;;15.26;52.78;101946.16;5046982;28;20136;-61
2022/04/28 03:28:38;;;;;;;6.70;5.50;;;;;;;15.24;52.73;101951.53;5046690;28;20080;-61
2022/04/28 03:31:06;;;;;;;8.57;5.70;;;;;;;15.21;53.01;101954.38;5044895;28;20103;-61
2022/04/28 03:33:32;;;;;;;7.07;5.97;;;;;;;15.16;53.18;101948.47;5046678;28;20095;-61
2022/04/28 03:35:59;;;;;;;9.25;5.55;;;;;;;15.16;53.06;101949.34;5045298;28;20091;-61
2022/04/28 03:38:25;;;;;;;7.38;5.75;;;;;;;15.15;53.04;101947.63;5046361;28;20041;-61
2022/04/28 03:40:52;;;;;;;7.13;6.00;;;;;;;15.12;53.40;101947.81;5046799;28;20103;-61
2022/04/28 03:43:19;;;;;;;6.38;5.05;;;;;;;15.10;53.36;101948.84;5041878;28;20041;-61
2022/04/28 03:45:45;;;;;;;7.65;5.78;;;;;;;15.08;53.64;101956.00;5046640;28;20092;-61
2022/04/28 03:48:12;;;;;;;6.18;5.32;;;;;;;15.06;53.45;101947.28;5045210;28;20097;-61
2022/04/28 03:50:39;;;;;;;6.60;5.03;;;;;;;15.05;53.77;101953.53;5047007;28;20550;-61
2022/04/28 03:53:06;;;;;;;6.95;4.93;;;;;;;15.02;53.89;101959.84;5048315;28;20045;-61
2022/04/28 03:55:32;;;;;;;7.18;5.68;;;;;;;14.99;53.88;101962.63;5050073;28;20406;-61
2022/04/28 03:57:59;;;;;;;7.72;5.65;;;;;;;14.99;54.08;101962.63;5049420;28;20085;-61
2022/04/28 04:00:26;;;;;;;7.03;4.93;;;;;;;14.96;54.04;101960.19;5044073;28;20045;-61
2022/04/28 04:02:52;;;;;;;7.95;5.38;;;;;;;14.93;53.94;101961.22;5049869;28;20389;-61
2022/04/28 04:05:19;;;;;;;7.45;5.25;;;;;;;14.92;54.32;101963.91;5037923;28;20053;-61
2022/04/28 04:07:46;;;;;;;7.50;5.32;;;;;;;14.93;54.13;101971.78;5050673;28;20041;-61
2022/04/28 04:10:13;;;;;;;5.80;4.85;;;;;;;14.92;54.11;101972.72;5051394;28;20045;-61
2022/04/28 04:12:40;;;;;;;6.32;5.10;;;;;;;14.92;54.39;101975.34;5051027;28;20395;-61
2022/04/28 04:15:07;;;;;;;6.75;5.25;;;;;;;14.92;54.41;101974.47;5042492;28;20045;-61
2022/04/28 04:17:45;;;;;;;6.03;4.53;;;;;;;14.90;54.35;101979.03;5046958;28;20501;-61
2022/04/28 04:20:12;;;;;;;5.78;4.80;;;;;;;14.89;54.57;101975.50;5050756;28;20130;-61
2022/04/28 04:22:39;;;;;;;6.75;4.85;;;;;;;14.91;54.44;101976.28;5050990;28;20536;-61
2022/04/28 04:25:07;;;;;;;5.80;4.88;;;;;;;14.90;54.42;101987.78;5050774;28;20045;-61
2022/04/28 04:27:33;;;;;;;6.07;4.82;;;;;;;14.92;54.46;101985.06;5050717;28;20551;-61
2022/04/28 04:32:17;;;;;;;7.75;5.10;;;;;;;14.83;54.82;101983.75;5051072;28;20045;-61
2022/04/28 04:32:48;;;;;;;8.18;5.15;;;;;;;14.91;54.72;101991.31;5049217;28;20507;-61
2022/04/28 04:35:15;;;;;;;5.93;4.97;;;;;;;14.93;54.74;101994.69;5051028;28;20049;-61
2022/04/28 04:37:42;;;;;;;5.43;4.28;;;;;;;14.91;55.01;102002.72;5050942;28;20064;-61
2022/04/28 04:40:13;;;;;;;6.60;4.40;;;;;;;14.94;54.90;101991.13;5050593;28;20464;-61
2022/04/28 04:42:39;;;;;;;6.15;4.63;;;;;;;14.96;54.95;101999.84;5050672;28;20115;-60
2022/04/28 04:45:08;;;;;;;5.97;4.35;;;;;;;14.97;54.98;101993.56;5050189;28;20844;-61
2022/04/28 04:47:35;;;;;;;4.85;4.28;;;;;;;15.00;54.86;102001.34;5050100;28;20088;-61
2022/04/28 04:50:03;;;;;;;5.75;4.65;;;;;;;15.01;54.80;102001.25;5047298;28;20033;-61
2022/04/28 04:52:30;;;;;;;6.43;4.22;;;;;;;15.00;55.06;102004.00;5044717;28;20092;-61
2022/04/28 04:54:57;;;;;;;6.95;4.75;;;;;;;14.98;55.23;102009.38;5035796;28;20049;-63
2022/04/28 04:57:24;;;;;;;6.35;4.63;;;;;;;14.99;55.04;102007.56;5035902;28;20096;-63
2022/04/28 04:59:51;;;;;;;7.43;4.90;;;;;;;14.99;55.15;102008.41;5033937;28;20429;-60
2022/04/28 05:02:17;;;;;;;7.18;4.55;;;;;;;15.01;55.21;102011.00;5039535;28;20045;-60
2022/04/28 05:04:44;;;;;;;4.05;2.10;;;;;;;15.54;56.48;102010.69;5041491;28;20599;-60
2022/04/28 05:07:11;;;;;;;7.47;2.88;;;;;;;15.85;57.09;102014.25;5044276;28;20502;-61
2022/04/28 05:09:38;;;;;;;11.35;4.90;;;;;;;15.60;56.76;102013.84;5042645;28;20121;-60
2022/04/28 05:12:06;;;;;;;8.80;4.65;;;;;;;15.49;56.89;102013.59;5031511;28;20116;-60
2022/04/28 05:14:38;;;;;;;6.75;4.20;;;;;;;15.41;56.43;102011.38;5039300;28;20087;-60
2022/04/28 05:17:05;;;;;;;8.80;5.05;;;;;;;15.37;56.10;102016.97;5034452;28;20046;-60
2022/04/28 05:19:33;;;;;;;6.68;5.05;;;;;;;15.35;56.31;102023.19;5038191;28;20084;-60
2022/04/28 05:21:59;;;;;;;8.13;6.00;;;;;;;15.34;55.71;102021.47;5034086;28;20121;-60
2022/04/28 05:24:26;;;;;;;11.63;5.45;;;;;;;15.33;55.81;102022.41;5038598;28;20046;-60
2022/04/28 05:26:52;;;;;;;7.32;5.47;;;;;;;15.34;55.65;102023.28;5037367;28;20079;-60
2022/04/28 05:29:19;;;;;;;11.23;4.75;;;;;;;15.38;55.25;102030.09;5037176;28;20093;-61
2022/04/28 05:31:46;;;;;;;9.60;5.50;;;;;;;15.39;55.22;102026.50;5031227;28;20049;-60
2022/04/28 05:34:12;;;;;;;9.40;5.53;;;;;;;15.45;54.91;102034.09;5030963;28;20180;-61
2022/04/28 05:36:40;;;;;;;8.25;5.43;;;;;;;15.46;54.90;102030.50;5031652;28;20467;-61
2022/04/28 05:39:07;;;;;;;6.35;4.28;;;;;;;15.50;55.19;102031.19;5031546;28;20137;-60
2022/04/28 05:41:35;;;;;;;7.40;4.65;;;;;;;15.53;55.16;102033.66;5040911;28;20045;-61
2022/04/28 05:46:47;;;;;;;5.68;4.05;;;;;;;15.63;55.17;102041.91;5040588;28;20412;-60
2022/04/28 05:49:13;;;;;;;6.47;4.45;;;;;;;15.68;54.92;102039.88;5038097;28;20109;-60
2022/04/28 05:51:40;;;;;;;18.13;3.63;;;;;;;15.76;55.05;102039.44;5038250;28;20092;-62
2022/04/28 05:54:07;;;;;;;5.75;3.60;;;;;;;16.09;55.76;102046.38;5034219;28;20045;-62
2022/04/28 05:56:34;;;;;;;7.03;3.40;;;;;;;16.00;55.48;102048.63;5036977;28;20061;-61
2022/04/28 05:59:01;;;;;;;8.98;3.80;;;;;;;16.03;54.88;102044.94;5040929;28;20045;-61
2022/04/28 06:01:29;;;;;;;7.95;4.40;;;;;;;16.07;54.85;102048.25;5035858;28;20468;-62
2022/04/28 06:03:56;;;;;;;5.25;3.38;;;;;;;16.11;54.37;102047.13;5048612;28;20044;-62
2022/04/28 06:06:23;;;;;;;13.77;4.85;;;;;;;16.15;54.66;102051.28;5046320;28;20048;-60
2022/04/28 06:08:49;;;;;;;5.65;2.67;;;;;;;16.26;54.43;102051.50;5042715;28;20073;-61
2022/04/28 06:11:16;;;;;;;5.78;3.45;;;;;;;16.31;53.98;102052.06;5042081;28;20041;-62
2022/04/28 06:13:43;;;;;;;9.05;3.67;;;;;;;16.37;53.83;102057.97;5037943;28;20080;-61
2022/04/28 06:16:10;;;;;;;8.63;3.35;;;;;;;16.41;53.65;102051.53;5037379;28;20037;-61
2022/04/28 06:18:40;;;;;;;5.40;3.70;;;;;;;16.45;53.90;102047.75;5031925;28;20153;-62
2022/04/28 06:21:09;;;;;;;7.40;3.38;;;;;;;16.50;53.60;102053.63;5044001;28;20153;-61
2022/04/28 06:23:36;;;;;;;4.68;3.03;;;;;;;16.60;53.15;102053.94;5046023;28;20052;-62
2022/04/28 06:26:02;;;;;;;5.18;3.80;;;;;;;16.70;52.95;102057.72;5043774;28;20053;-62
2022/04/28 06:28:29;;;;;;;5.80;3.38;;;;;;;16.71;53.12;102056.78;5045405;28;20081;-62
2022/04/28 06:30:55;;;;;;;3.88;3.38;;;;;;;16.78;52.76;102062.53;5043575;28;20057;-61
2022/04/28 06:33:22;;;;;;;6.32;3.22;;;;;;;16.81;52.42;102065.84;5044193;28;20098;-62
2022/04/28 06:35:48;;;;;;;5.03;3.00;;;;;;;16.85;52.11;102063.88;5045658;28;20474;-61
2022/04/28 06:38:15;;;;;;;5.35;3.13;;;;;;;16.87;52.11;102061.94;5044021;28;20044;-65
2022/04/28 06:40:42;;;;;;;6.82;3.03;;;;;;;16.87;52.29;102069.91;5046183;28;20556;-61
2022/04/28 06:43:08;;;;;;;5.47;2.92;;;;;;;16.94;52.13;102062.47;5042721;28;20049;-62
2022/04/28 06:45:36;;;;;;;7.80;2.92;;;;;;;17.01;51.68;102074.38;5029198;28;20131;-62
2022/04/28 06:48:04;;;;;;;4.45;3.08;;;;;;;17.18;51.70;102070.69;5045791;28;20052;-62
2022/04/28 06:50:30;;;;;;;7.45;3.45;;;;;;;17.43;50.93;102071.75;5040369;28;20055;-62
2022/04/28 06:52:57;;;;;;;7.00;3.08;;;;;;;17.71;50.73;102075.25;5036513;28;20128;-62
2022/04/28 06:55:24;;;;;;;6.90;3.28;;;;;;;17.93;50.11;102077.38;5039195;28;20080;-61
2022/04/28 06:57:51;;;;;;;2.97;2.33;;;;;;;18.11;49.65;102075.31;5034314;28;20042;-62
2022/04/28 07:00:17;;;;;;;1.92;1.40;;;;;;;18.22;49.24;102075.44;5033237;28;20472;-63
2022/04/28 07:02:44;;;;;;;2.67;1.85;;;;;;;18.36;47.76;102069.19;5043079;28;20069;-62
2022/04/28 07:05:11;;;;;;;2.45;1.10;;;;;;;18.46;47.61;102072.03;5039403;28;20060;-61
2022/04/28 07:07:38;;;;;;;4.15;1.00;;;;;;;18.46;47.10;102076.50;5042621;28;20051;-63
2022/04/28 07:10:05;;;;;;;1.92;1.27;;;;;;;18.42;46.18;102083.84;5034000;28;20049;-62
2022/04/28 07:12:32;;;;;;;1.90;1.50;;;;;;;18.58;45.55;102080.97;5047098;28;20049;-61
2022/04/28 07:14:59;;;;;;;2.63;1.65;;;;;;;18.76;45.37;102078.84;5044550;28;20099;-61
2022/04/28 07:17:26;;;;;;;3.72;1.40;;;;;;;18.85;44.84;102064.88;5039618;28;20099;-61
2022/04/28 07:19:52;;;;;;;3.63;1.77;;;;;;;18.99;44.52;102076.41;5032519;28;20464;-61
2022/04/28 07:22:19;;;;;;;3.15;2.08;;;;;;;19.08;44.29;102078.41;5038133;28;20045;-62
2022/04/28 07:24:45;;;;;;;3.25;1.90;;;;;;;19.14;44.17;102077.13;5042976;28;20053;-62
2022/04/28 07:27:12;;;;;;;3.95;1.80;;;;;;;19.26;44.12;102081.53;5044667;28;20106;-62
2022/04/28 07:29:39;;;;;;;3.22;1.52;;;;;;;19.32;43.64;102080.25;5033060;28;20401;-62
2022/04/28 07:32:07;;;;;;;3.80;1.70;;;;;;;19.38;43.53;102072.66;5039835;28;20087;-62
2022/04/28 07:34:35;;;;;;;3.20;1.77;;;;;;;19.50;43.36;102080.72;5045461;28;20837;-62
2022/04/28 07:37:03;;;;;;;3.35;1.52;;;;;;;19.54;43.17;102079.53;5036916;28;20821;-62
2022/04/28 07:39:30;;;;;;;1.70;1.42;;;;;;;19.63;42.79;102078.00;5046239;28;20049;-62
2022/04/28 07:41:56;;;;;;;1.77;1.20;;;;;;;19.69;42.24;102077.53;5045611;28;20111;-60
2022/04/28 07:44:23;;;;;;;4.05;1.30;;;;;;;19.77;42.39;102080.50;5047844;28;20090;-62
2022/04/28 07:46:50;;;;;;;2.90;1.30;;;;;;;19.86;41.95;102076.34;5046292;28;20080;-61
2022/04/28 07:49:17;;;;;;;2.30;1.23;;;;;;;19.99;41.51;102081.59;5040326;28;20152;-62
2022/04/28 07:51:43;;;;;;;1.55;0.98;;;;;;;20.09;41.33;102074.59;5035953;28;20178;-62
2022/04/28 07:54:10;;;;;;;1.95;1.23;;;;;;;20.17;40.94;102088.16;5047846;28;20110;-64
2022/04/28 07:56:36;;;;;;;2.53;1.13;;;;;;;20.28;40.60;102084.69;5035071;28;20049;-63
2022/04/28 07:59:03;;;;;;;2.28;0.88;;;;;;;20.34;40.27;102084.22;5047951;28;20437;-63
2022/04/28 08:01:49;;;;;;;1.38;1.10;;;;;;;20.48;39.78;102083.16;5046425;28;20045;-61
2022/04/28 08:04:18;;;;;;;1.50;1.02;;;;;;;20.12;40.24;102093.00;5047909;28;20056;-61
2022/04/28 08:06:44;;;;;;;1.15;0.98;;;;;;;20.23;39.72;102092.19;5038300;28;20106;-61
2022/04/28 08:09:11;;;;;;;1.35;1.13;;;;;;;20.40;39.62;102096.22;5041251;28;20049;-62
2022/04/28 08:11:41;;;;;;;1.52;1.05;;;;;;;20.56;39.14;102094.06;5041947;28;20158;-63
2022/04/28 08:14:08;;;;;;;2.83;1.08;;;;;;;20.75;38.84;102097.13;5034928;28;20044;-61
2022/04/28 08:16:35;;;;;;;2.30;1.20;;;;;;;21.00;38.22;102096.03;5049342;28;20045;-62
2022/04/28 08:19:02;;;;;;;1.25;1.02;;;;;;;21.15;37.98;102091.31;5037140;28;20049;-62
2022/04/28 08:21:29;;;;;;;1.40;1.15;;;;;;;21.30;37.70;102091.91;5043401;28;20138;-63
2022/04/28 08:23:56;;;;;;;3.53;1.52;;;;;;;21.45;36.96;102087.13;5034409;28;20081;-61
2022/04/28 08:26:24;;;;;;;1.48;1.13;;;;;;;21.61;36.59;102087.59;5038441;28;20080;-61
2022/04/28 08:28:50;;;;;;;2.42;1.60;;;;;;;21.56;36.73;102086.28;5035622;28;20052;-62
2022/04/28 08:31:17;;;;;;;2.72;1.70;;;;;;;21.14;37.41;102095.81;5037993;28;20095;-64
2022/04/28 08:33:47;;;;;;;9.85;1.65;;;;;;;20.88;37.49;102097.88;5035003;28;20045;-62
2022/04/28 08:36:14;;;;;;;4.05;1.23;;;;;;;20.86;37.21;102102.47;5039249;28;20095;-62
2022/04/28 08:38:40;;;;;;;3.28;1.55;;;;;;;21.03;37.00;102103.81;5033850;28;20154;-62
2022/04/28 08:41:09;;;;;;;3.65;1.48;;;;;;;21.25;36.41;102094.94;5036702;28;20084;-61
2022/04/28 08:43:37;;;;;;;2.10;1.23;;;;;;;21.45;35.88;102095.16;5033556;28;20049;-62
2022/04/28 08:48:52;;;;;;;2.65;1.23;;;;;;;21.83;33.97;102088.50;5035272;28;20449;-63
2022/04/28 08:51:20;;;;;;;2.38;1.40;;;;;;;21.96;33.66;102091.81;5042984;28;20086;-61
2022/04/28 08:53:50;;;;;;;6.35;1.50;;;;;;;22.10;33.38;102098.69;5041939;28;20057;-62
2022/04/28 08:56:18;;;;;;;2.50;1.20;;;;;;;22.32;32.78;102092.38;5039779;28;20085;-62
2022/04/28 08:58:45;;;;;;;1.77;1.20;;;;;;;22.43;32.98;102101.31;5043333;28;20128;-62
2022/04/28 09:01:11;;;;;;;3.90;1.25;;;;;;;22.59;32.95;102099.03;5040044;28;20084;-61
2022/04/28 09:03:38;;;;;;;1.88;1.20;;;;;;;22.75;32.59;102095.00;5044425;28;20049;-62
2022/04/28 09:06:30;;;;;;;1.60;1.20;;;;;;;22.66;32.17;102094.84;5042701;28;20081;-62
2022/04/28 09:09:09;;;;;;;4.10;1.70;;;;;;;22.69;31.71;102088.38;5036738;28;20045;-61
2022/04/28 09:11:39;;;;;;;4.05;1.30;;;;;;;22.82;31.40;102093.50;5045494;28;20053;-61
2022/04/28 09:14:10;;;;;;;7.03;1.60;;;;;;;22.90;31.21;102093.66;5047742;28;20110;-63
2022/04/28 09:16:45;;;;;;;5.40;1.70;;;;;;;23.08;31.18;102077.78;5032829;28;20150;-61
2022/04/28 09:19:19;;;;;;;1.67;1.45;;;;;;;23.24;31.24;102077.31;5044787;28;20084;-61
2022/04/28 09:21:47;;;;;;;2.08;1.38;;;;;;;23.40;30.95;102081.28;5039382;28;20077;-61
2022/04/28 09:24:14;;;;;;;2.97;1.48;;;;;;;23.52;30.31;102082.84;5031667;28;20038;-62
2022/04/28 09:26:41;;;;;;;2.97;1.50;;;;;;;23.63;29.80;102074.69;5044844;28;20076;-61
2022/04/28 09:29:13;;;;;;;2.13;1.25;;;;;;;23.67;29.49;102077.94;5047700;28;20106;-63
2022/04/28 09:31:41;;;;;;;2.97;1.45;;;;;;;23.69;29.38;102062.53;5031614;28;20126;-61
2022/04/28 09:34:27;;;;;;;6.28;1.70;;;;;;;23.81;29.10;102066.78;5047243;28;20044;-62
2022/04/28 09:36:56;;;;;;;3.60;1.40;;;;;;;23.86;29.21;102062.81;5031871;28;20053;-62
2022/04/28 09:42:31;;;;;;;3.10;2.38;;;;;;;24.23;28.67;102064.78;5036357;28;20080;-60
2022/04/28 09:44:59;;;;;;;3.28;1.98;;;;;;;24.40;28.55;102066.69;5031519;28;20040;-61
2022/04/28 09:47:27;;;;;;;2.55;1.70;;;;;;;24.56;28.28;102060.72;5029672;28;20049;-60
2022/04/28 09:49:57;;;;;;;3.40;2.38;;;;;;;24.61;28.37;102063.81;5034276;28;20045;-61
2022/04/28 09:52:24;;;;;;;4.28;2.10;;;;;;;24.78;28.48;102054.16;5036934;28;20045;-61
2022/04/28 09:54:52;;;;;;;2.20;1.98;;;;;;;24.77;28.38;102062.34;5040563;28;20080;-62
2022/04/28 09:57:23;;;;;;;2.78;1.65;;;;;;;24.65;28.38;102055.50;5040147;28;20529;-63
2022/04/28 09:59:59;;;;;;;3.15;2.28;;;;;;;24.77;28.16;102059.66;5046777;28;20417;-63
2022/04/28 10:02:27;;;;;;;2.55;2.20;;;;;;;24.94;27.96;102061.56;5043378;28;20202;-63
2022/04/28 10:05:01;;;;;;;;;;;;;;;24.97;27.75;102057.72;5042087;28;20041;-61
2022/04/28 10:07:28;;;;;;;3.67;2.50;;;;;;;25.10;27.97;102047.50;5034960;28;19925;-61
2022/04/28 10:09:54;;;;;;;3.92;2.28;;;;;;;25.12;27.88;102047.34;5037295;28;20498;-61
2022/04/28 10:12:25;;;;;;;3.72;2.72;;;;;;;25.36;27.74;102054.00;5039291;28;20041;-61
2022/04/28 10:14:54;;;;;;;5.00;2.35;;;;;;;25.51;27.77;102048.91;5039124;28;20046;-61
2022/04/28 10:17:23;;;;;;;4.43;2.67;;;;;;;25.45;27.55;102053.06;5034865;28;20077;-61
2022/04/28 10:19:56;;;;;;;5.15;2.35;;;;;;;25.53;27.32;102041.56;5043118;28;20102;-63
2022/04/28 10:22:29;;;;;;;3.35;2.80;;;;;;;25.50;27.10;102044.56;5034081;28;20076;-61
2022/04/28 10:33:21;;;;;;;3.35;2.53;;;;;;;26.17;26.43;102042.25;5041960;28;20041;-62
2022/04/28 10:35:50;;;;;;;2.20;2.00;;;;;;;26.24;26.17;102034.38;5047135;28;20127;-62
2022/04/28 10:38:31;;;;;;;3.78;2.33;;;;;;;26.37;25.61;102028.56;5045296;28;20464;-63
2022/04/28 10:41:06;;;;;;;5.03;2.38;;;;;;;26.54;25.74;102029.50;5032259;28;20057;-63
2022/04/28 10:43:33;;;;;;;;;;;;;;;26.61;25.55;102032.38;5039696;28;20127;-63
2022/04/28 10:46:08;;;;;;;2.90;2.60;;;;;;;26.59;25.48;102021.78;5044545;28;20385;-63
2022/04/28 10:48:38;;;;;;;;;;;;;;;26.55;25.43;102021.25;5043479;28;20114;-63
2022/04/28 10:51:11;;;;;;;3.20;2.53;;;;;;;26.61;25.26;102027.00;5038928;28;19951;-63
2022/04/28 10:54:00;;;;;;;2.70;2.33;;;;;;;26.51;25.50;102019.91;5036235;28;20099;-63
2022/04/28 10:56:30;;;;;;;3.92;1.80;;;;;;;26.79;25.00;102033.16;5041902;28;20061;-63
2022/04/28 10:59:21;;;;;;;2.60;2.20;;;;;;;26.89;24.96;102024.94;5040051;28;20102;-62
2022/04/28 11:01:48;;;;;;;4.25;2.17;;;;;;;27.09;25.09;102008.50;5039877;28;20076;-63
2022/04/28 11:04:19;;;;;;;4.40;2.60;;;;;;;27.02;25.13;102013.66;5037469;28;20128;-62
2022/04/28 11:06:51;;;;;;;3.10;2.20;;;;;;;27.14;24.43;102012.34;5046031;28;20119;-63
2022/04/28 11:09:32;;;;;;;2.83;2.22;;;;;;;27.42;24.19;102014.78;5051640;28;20179;-63
2022/04/28 11:12:18;;;;;;;3.70;2.33;;;;;;;27.49;24.07;102009.56;5045676;28;20520;-63
2022/04/28 11:14:48;;;;;;;2.97;1.90;;;;;;;27.51;24.52;102011.06;5049681;28;20056;-62
2022/04/28 11:17:17;;;;;;;2.47;1.83;;;;;;;27.57;24.04;102011.44;5047785;28;20045;-63
2022/04/28 11:19:44;;;;;;;3.08;1.95;;;;;;;27.33;24.51;101999.59;5043918;28;20057;-62
2022/04/28 11:22:11;;;;;;;3.28;2.45;;;;;;;27.39;24.19;102001.66;5042015;28;20076;-62
2022/04/28 11:24:45;;;;;;;3.50;2.25;;;;;;;27.35;24.29;102001.09;5047855;28;20051;-62
2022/04/28 11:27:18;;;;;;;4.30;2.40;;;;;;;27.30;24.57;101994.50;5047193;28;20559;-62
2022/04/28 11:29:46;;;;;;;4.50;2.40;;;;;;;27.06;24.69;102001.59;5046103;28;20086;-62
2022/04/28 11:32:16;;;;;;;3.38;2.40;;;;;;;27.24;24.91;101996.03;5035867;28;20560;-64
2022/04/28 11:34:44;;;;;;;5.43;2.70;;;;;;;26.34;25.61;102004.66;5044957;28;20051;-63
2022/04/28 11:37:17;;;;;;;5.05;2.95;;;;;;;26.61;25.30;101997.38;5050846;28;20061;-62
2022/04/28 11:39:45;;;;;;;3.28;2.60;;;;;;;26.77;25.40;101988.56;5047234;28;20077;-62
2022/04/28 11:42:16;;;;;;;4.00;2.75;;;;;;;26.88;25.02;101994.47;5050452;28;20104;-62
2022/04/28 11:44:53;;;;;;;15.80;3.63;;;;;;;26.98;24.88;101982.69;5047005;28;20040;-63
2022/04/28 11:47:25;;;;;;;3.95;2.65;;;;;;;26.91;24.95;101987.06;5048354;28;20045;-62
2022/04/28 11:50:01;;;;;;;4.60;2.90;;;;;;;26.91;25.02;101993.28;5049155;28;20107;-63
2022/04/28 11:52:29;;;;;;;4.05;2.47;;;;;;;26.93;24.91;101987.72;5050370;28;20083;-66
2022/04/28 11:55:08;;;;;;;4.18;2.33;;;;;;;26.99;25.14;101987.06;5049536;28;20045;-64
2022/04/28 11:57:39;;;;;;;5.97;2.63;;;;;;;27.05;24.94;101986.41;5051186;28;20079;-65
2022/04/28 12:00:07;;;;;;;22.52;4.18;;;;;;;27.02;25.45;101984.91;5050522;28;20115;-65
2022/04/28 12:02:36;;;;;;;4.60;3.90;;;;;;;26.80;25.70;101978.25;5045833;28;20045;-63